Flight Track Log - Related Links

Times and Time Zones

All times are in EST time to prevent confusion due to time zone crossing. See the FLG4262 flight status page for this flight to view local times or setup timezone preferences in your user account.

Time Position Orientation Groundspeed Altitude Reporting Facility
EST Latitude Longitude Course Direction KTS MPH feet Rate Location/Type
Fri 05:27:57 PM 42.1203 -76.0075 220° Southwest 236 272 5,500  Level New Center
Fri 05:28:57 PM 42.1478 -76.0908 294° West 250 288 8,000 2,341 Climbing New Center
Fri 05:30:41 PM 42.1964 -76.2378 294° West 259 298 11,900 2,133 Climbing Cleveland Center
Fri 05:31:43 PM 42.2303 -76.3444 293° West 303 349 13,900 1,984 Climbing Cleveland Center
Fri 05:32:00 PM 42.2275 -76.6184 289° West  Level Estimated
Fri 05:32:45 PM 42.2675 -76.4617 293° West 308 354 16,000  Level Cleveland Center
Fri 05:33:47 PM 42.3017 -76.5700 293° West 312 359 16,700 1,258 Climbing Cleveland Center
Fri 05:34:49 PM 42.3358 -76.6789 293° West 315 362 18,600 1,597 Climbing Cleveland Center
Fri 05:35:51 PM 42.3692 -76.7858 293° West 309 356 20,000 1,500 Climbing Cleveland Center
Fri 05:36:53 PM 42.4100 -76.9217 292° West 323 372 21,700 1,968 Climbing Cleveland Center
Fri 05:37:56 PM 42.4439 -77.0281 293° West 315 362 24,100 1,872 Climbing Cleveland Center
Fri 05:38:58 PM 42.4736 -77.1247 293° West 285 328 25,600 919 Climbing Cleveland Center
Fri 05:40:00 PM 42.4875 -77.2289 280° West 283 326 26,000 194 Climbing Cleveland Center
Fri 05:41:02 PM 42.4956 -77.3414 276° West 298 343 26,000  Level Cleveland Center
Fri 05:42:04 PM 42.5058 -77.4753 276° West 319 367 26,000  Level Cleveland Center
Fri 05:43:06 PM 42.5147 -77.6025 275° West 337 388 26,000  Level Cleveland Center
Fri 05:44:08 PM 42.5250 -77.7336 276° West 347 399 26,000  Level Cleveland Center
Fri 05:45:10 PM 42.5361 -77.8875 276° West 354 407 26,000  Level Cleveland Center
Fri 05:46:12 PM 42.5456 -78.0225 275° West 358 412 26,000  Level Cleveland Center
Fri 05:47:14 PM 42.5542 -78.1569 275° West 357 411 26,000  Level Cleveland Center
Fri 05:48:16 PM 42.5639 -78.2919 276° West 360 414 26,000  Level Cleveland Center
Fri 05:49:19 PM 42.5725 -78.4261 275° West 358 412 26,000  Level Cleveland Center
Fri 05:50:21 PM 42.5819 -78.5614 275° West 361 415 26,000  Level Cleveland Center
Fri 05:51:23 PM 42.5922 -78.7219 275° West 357 411 26,000  Level Cleveland Center
Fri 05:52:25 PM 42.6006 -78.8539 275° West 354 407 26,000  Level Cleveland Center
Fri 05:53:27 PM 42.6089 -78.9872 275° West 355 409 26,000  Level Cleveland Center
Fri 05:54:29 PM 42.6164 -79.1211 274° West 357 411 26,000  Level Cleveland Center
Fri 05:55:31 PM 42.6239 -79.2533 274° West 353 406 26,000  Level Cleveland Center
Fri 05:56:33 PM 42.6317 -79.3858 275° West 353 406 26,000  Level Cleveland Center
Fri 05:57:35 PM 42.6394 -79.5439 274° West 352 405 26,000  Level Cleveland Center
Fri 05:58:37 PM 42.6478 -79.6758 275° West 351 404 26,000  Level Cleveland Center
Fri 05:59:39 PM 42.6542 -79.8072 274° West 351 404 26,000  Level Cleveland Center
Fri 06:00:41 PM 42.6614 -79.9350 274° West 343 395 26,000  Level Cleveland Center
Fri 06:01:44 PM 42.6667 -80.0575 273° West 334 384 26,000  Level Cleveland Center
Fri 06:02:46 PM 42.6742 -80.1978 274° West 321 369 26,000  Level Cleveland Center
Fri 06:03:48 PM 42.6800 -80.3181 274° West 317 365 26,000  Level Cleveland Center
Fri 06:04:50 PM 42.6856 -80.4356 274° West 313 360 26,000  Level Cleveland Center
Fri 06:05:52 PM 42.6906 -80.5533 273° West 311 358 26,000  Level Cleveland Center
Fri 06:06:54 PM 42.6967 -80.6725 274° West 311 358 26,000  Level Cleveland Center
Fri 06:07:56 PM 42.7028 -80.7942 274° West 322 371 26,000  Level Cleveland Center
Fri 06:08:58 PM 42.7017 -80.9331 269° West 317 365 26,000  Level Cleveland Center
Fri 06:10:00 PM 42.6875 -81.0514 261° West 317 365 26,000 -339 Level Cleveland Center
Fri 06:11:02 PM 42.6736 -81.1714 261° West 317 365 25,300 -823 Descending Cleveland Center
Fri 06:12:04 PM 42.6606 -81.2906 262° West 318 366 24,300 -629 Descending Cleveland Center
Fri 06:13:06 PM 42.6456 -81.4114 260° West 321 369 24,000 -145 Descending Cleveland Center
Fri 06:14:08 PM 42.6325 -81.5303 262° West 318 366 24,000  Level Cleveland Center
Fri 06:15:10 PM 42.6189 -81.6464 261° West 311 358 24,000 -576 Level Cleveland Center
Fri 06:16:13 PM 42.6033 -81.7728 261° West 293 337 22,800 -1,200 Descending Cleveland Center
Fri 06:17:15 PM 42.5919 -81.8617 260° West 283 326 21,500 -1,500 Descending Cleveland Center
Fri 06:18:17 PM 42.5778 -81.9875 261° West 283 326 19,700 -1,597 Descending Cleveland Center
Fri 06:19:19 PM 42.5653 -82.0925 261° West 282 325 18,200 -1,258 Descending Cleveland Center
Fri 06:20:21 PM 42.5519 -82.1983 260° West 285 328 17,100 -1,306 Descending Cleveland Center
Fri 06:21:23 PM 42.5386 -82.2967 260° West 272 313 15,500 -1,754 Descending Cleveland Center
Fri 06:21:26 PM 42.5364 -82.3153 261° West 256 295 15,200 -1,452 Descending Cleveland Center
Fri 06:22:25 PM 42.5267 -82.3939 260° West 264 304 14,000 -1,418 Descending Cleveland Center
Fri 06:23:16 PM 42.5158 -82.4939 262° West 259 298 12,600 -1,355 Descending Cleveland Center
Fri 06:23:27 PM 42.5150 -82.4906 109° East 263 303 12,600 -655 Level Cleveland Center
Fri 06:24:11 PM 42.4975 -82.5736 254° West 250 288 12,000 -581 Descending Cleveland Center
Fri 06:24:29 PM 42.4897 -82.5961 245° Southwest 250 288 12,000  Level Cleveland Center
Fri 06:25:31 PM 42.4586 -82.6831 244° Southwest 255 293 12,000 55 Level Cleveland Center
Fri 06:26:19 PM 42.4317 -82.7628 245° Southwest 260 299 12,100  Climbing Cleveland Center
Fri 06:26:33 PM 42.4272 -82.7711 234° Southwest 258 297 12,000  Descending Cleveland Center
Fri 06:27:15 PM 42.4031 -82.8411 245° Southwest 262 302 12,100  Climbing Cleveland Center
Fri 06:27:35 PM 42.3956 -82.8608 243° Southwest 262 302 12,000 -90 Descending Cleveland Center
Fri 06:28:22 PM 42.3664 -82.9406 244° Southwest 257 296 12,000  Level Cleveland Center
Fri 06:28:37 PM 42.3642 -82.9478 247° West 261 300 12,000  Level Cleveland Center
Fri 06:29:11 PM 42.3422 -83.0108 245° Southwest 249 287 12,000  Level Cleveland Center
Fri 06:29:39 PM 42.3350 -83.0306 244° Southwest 250 288 12,000  Level Cleveland Center
Fri 06:30:12 PM 42.3158 -83.0833 244° Southwest 211 243 12,000  Level Cleveland Center
Fri 06:30:42 PM 42.3039 -83.1161 244° Southwest 219 252 12,000 98 Level Cleveland Center
Fri 06:31:13 PM 42.2856 -83.1525 236° Southwest 216 249 12,100  Climbing Cleveland Center
Fri 06:31:44 PM 42.2619 -83.1692 208° Southwest 219 252 12,000 -393 Descending Cleveland Center
Fri 06:32:14 PM 42.2319 -83.1958 213° Southwest 225 259 11,700 -871 Descending Cleveland Center
Fri 06:32:46 PM 42.2094 -83.2136 210° Southwest 221 254 11,100 -1,258 Descending Cleveland Center
Fri 06:33:16 PM 42.1783 -83.2392 211° Southwest 228 262 10,400 -1,355 Descending Cleveland Center
Fri 06:33:48 PM 42.1544 -83.2606 214° Southwest 229 264 9,700 -1,475 Descending Cleveland Center
Fri 06:34:17 PM 42.1197 -83.2903 212° Southwest 245 282 8,900 -1,452 Descending Cleveland Center
Fri 06:34:50 PM 42.0964 -83.3103 212° Southwest 243 280 8,200 -1,279 Descending Cleveland Center
Fri 06:35:18 PM 42.0575 -83.3378 208° Southwest 249 287 7,600 -968 Descending Cleveland Center
Fri 06:35:52 PM 42.0336 -83.3503 201° Southwest 245 282 7,200 -448 Descending Cleveland Center
Fri 06:36:25 PM 41.9950 -83.3600 191° South 210 242 7,100 -194 Descending Cleveland Center
Fri 06:36:54 PM 41.9672 -83.3519 168° South 213 245 7,000 -90 Descending Cleveland Center
Fri 06:37:32 PM 41.9292 -83.3450 172° South 211 243 7,000 -290 Level Cleveland Center
Fri 06:37:56 PM 41.9086 -83.3408 171° South 210 242 6,700 -980 Descending Cleveland Center
Fri 06:38:21 PM 41.8836 -83.3358 172° South 209 241 6,200 -1,065 Descending Cleveland Center
Fri 06:38:58 PM 41.8511 -83.3322 175° South 207 238 5,600 -984 Descending Cleveland Center
Fri 06:39:22 PM 41.8297 -83.3564 220° Southwest 194 223 5,200 -581 Descending Cleveland Center
Fri 06:40:00 PM 41.8225 -83.3900 254° West 193 222 5,000 -590 Descending Cleveland Center
Fri 06:40:23 PM 41.8142 -83.4214 250° West 185 213 4,600 -871 Descending Cleveland Center
Fri 06:41:02 PM 41.8114 -83.4533 263° West 185 213 4,100 -581 Descending Cleveland Center
Fri 06:41:25 PM 41.8269 -83.4708 320° Northwest 149 171 4,000 -97 Descending Cleveland Center
Fri 06:42:04 PM 41.8472 -83.4822 337° Northwest 157 181 4,000  Level Cleveland Center
Fri 06:42:26 PM 41.8656 -83.4847 354° North 141 162 4,000  Level Cleveland Center
Fri 06:43:06 PM 41.8856 -83.4872 355° North 142 163 4,000 109 Level Cleveland Center
Fri 06:43:21 PM 41.9047 -83.4931 347° North 155 178 4,100  Climbing Cleveland Center
Fri 06:44:08 PM 41.9350 -83.4961 356° North 147 169 4,000 -82 Descending Cleveland Center
Fri 06:44:34 PM 41.9547 -83.4975 357° North 147 169 4,000  Level Cleveland Center
Fri 06:45:11 PM 41.9769 -83.4944 North 149 171 4,000  Level Cleveland Center
Fri 06:45:29 PM 41.9931 -83.4917 North 148 170 4,000  Level Cleveland Center
Fri 06:46:13 PM 42.0172 -83.4833 14° North 148 170 4,000  Level Cleveland Center
Fri 06:46:36 PM 42.0344 -83.4694 31° Northeast 153 176 4,000  Level Cleveland Center
Fri 06:47:15 PM 42.0536 -83.4556 28° Northeast 149 171 4,000 -327 Level Cleveland Center
Fri 06:47:31 PM 42.0681 -83.4433 32° Northeast 152 175 3,700 -774 Descending Cleveland Center
Fri 06:48:17 PM 42.0903 -83.4283 27° Northeast 151 174 3,200 -885 Descending Cleveland Center
Fri 06:48:32 PM 42.1058 -83.4178 27° Northeast 143 165 2,800 -984 Descending Cleveland Center
Fri 06:49:18 PM 42.1319 -83.3989 28° Northeast 147 169 2,200 -787 Descending Cleveland Center
Fri 06:49:33 PM 42.1389 -83.3942 27° Northeast 128 147 2,000 -677 Descending Cleveland Center
Fri 06:50:20 PM 42.1628 -83.3769 28° Northeast 135 155 1,500 -689 Descending Cleveland Center
Fri 06:50:34 PM 42.1703 -83.3706 32° Northeast 130 150 1,300 -677 Descending Cleveland Center
Fri 06:51:22 PM 42.1936 -83.3525 30° Northeast 131 151 800 -625 Descending Cleveland Center

Login

Don't have an account? Register now (free) for customized features, flight alerts, and more!